sensor_id;sensor_type;location;lat;lon;timestamp;temperature;humidity
33811;DHT22;20119;48.334;16.206;2023-04-01T00:00:20;9.40;99.90
33811;DHT22;20119;48.334;16.206;2023-04-01T00:02:50;9.50;99.90
33811;DHT22;20119;48.334;16.206;2023-04-01T00:05:19;9.50;99.90
33811;DHT22;20119;48.334;16.206;2023-04-01T00:07:46;9.50;99.90
33811;DHT22;20119;48.334;16.206;2023-04-01T00:10:13;9.50;99.90
33811;DHT22;20119;48.334;16.206;2023-04-01T00:12:42;9.60;99.90
33811;DHT22;20119;48.334;16.206;2023-04-01T00:15:12;9.50;99.90
33811;DHT22;20119;48.334;16.206;2023-04-01T00:17:40;9.50;99.90
33811;DHT22;20119;48.334;16.206;2023-04-01T00:20:09;9.50;99.90
33811;DHT22;20119;48.334;16.206;2023-04-01T00:22:37;9.50;99.90
33811;DHT22;20119;48.334;16.206;2023-04-01T00:25:06;9.50;99.90
33811;DHT22;20119;48.334;16.206;2023-04-01T00:27:33;9.50;99.90
33811;DHT22;20119;48.334;16.206;2023-04-01T00:30:02;9.60;99.90
33811;DHT22;20119;48.334;16.206;2023-04-01T00:32:29;9.50;99.90
33811;DHT22;20119;48.334;16.206;2023-04-01T00:34:57;9.40;99.90
33811;DHT22;20119;48.334;16.206;2023-04-01T00:37:27;9.50;99.90
33811;DHT22;20119;48.334;16.206;2023-04-01T00:39:55;9.50;99.90
33811;DHT22;20119;48.334;16.206;2023-04-01T00:42:23;9.50;99.90
33811;DHT22;20119;48.334;16.206;2023-04-01T00:44:53;9.60;99.90
33811;DHT22;20119;48.334;16.206;2023-04-01T00:47:22;9.60;99.90
33811;DHT22;20119;48.334;16.206;2023-04-01T00:49:53;9.50;99.90
33811;DHT22;20119;48.334;16.206;2023-04-01T00:52:26;9.60;99.90
33811;DHT22;20119;48.334;16.206;2023-04-01T00:54:56;9.60;99.90
33811;DHT22;20119;48.334;16.206;2023-04-01T00:57:29;9.50;99.90
33811;DHT22;20119;48.334;16.206;2023-04-01T00:59:59;9.60;99.90
33811;DHT22;20119;48.334;16.206;2023-04-01T01:02:27;9.60;99.90
33811;DHT22;20119;48.334;16.206;2023-04-01T01:04:55;9.60;99.90
33811;DHT22;20119;48.334;16.206;2023-04-01T01:07:31;9.60;99.90
33811;DHT22;20119;48.334;16.206;2023-04-01T01:10:03;9.70;99.90
33811;DHT22;20119;48.334;16.206;2023-04-01T01:12:38;9.70;99.90
33811;DHT22;20119;48.334;16.206;2023-04-01T01:15:12;9.60;99.90
33811;DHT22;20119;48.334;16.206;2023-04-01T01:17:48;9.60;99.90
33811;DHT22;20119;48.334;16.206;2023-04-01T01:26:50;9.60;99.90
33811;DHT22;20119;48.334;16.206;2023-04-01T01:29:52;9.60;99.90
33811;DHT22;20119;48.334;16.206;2023-04-01T01:35:43;9.50;99.90
33811;DHT22;20119;48.334;16.206;2023-04-01T01:38:14;9.50;99.90
33811;DHT22;20119;48.334;16.206;2023-04-01T01:40:46;9.50;99.90
33811;DHT22;20119;48.334;16.206;2023-04-01T01:43:19;9.50;99.90
33811;DHT22;20119;48.334;16.206;2023-04-01T01:45:51;9.50;99.90
33811;DHT22;20119;48.334;16.206;2023-04-01T01:48:21;9.60;99.90
33811;DHT22;20119;48.334;16.206;2023-04-01T01:50:53;9.70;99.90
33811;DHT22;20119;48.334;16.206;2023-04-01T01:53:20;9.70;99.90
33811;DHT22;20119;48.334;16.206;2023-04-01T01:55:48;9.70;99.90
33811;DHT22;20119;48.334;16.206;2023-04-01T01:58:19;9.70;99.90
33811;DHT22;20119;48.334;16.206;2023-04-01T02:00:51;9.60;99.90
33811;DHT22;20119;48.334;16.206;2023-04-01T02:03:22;9.60;99.90
33811;DHT22;20119;48.334;16.206;2023-04-01T02:05:53;9.60;99.90
33811;DHT22;20119;48.334;16.206;2023-04-01T02:08:25;9.60;99.90
33811;DHT22;20119;48.334;16.206;2023-04-01T02:10:56;9.60;99.90
33811;DHT22;20119;48.334;16.206;2023-04-01T02:13:29;9.50;99.90
33811;DHT22;20119;48.334;16.206;2023-04-01T02:16:01;9.40;99.90
33811;DHT22;20119;48.334;16.206;2023-04-01T02:18:34;9.40;99.90
33811;DHT22;20119;48.334;16.206;2023-04-01T02:21:06;9.30;99.90
33811;DHT22;20119;48.334;16.206;2023-04-01T02:23:36;9.30;99.90
33811;DHT22;20119;48.334;16.206;2023-04-01T02:26:06;9.40;99.90
33811;DHT22;20119;48.334;16.206;2023-04-01T02:28:34;9.30;99.90
33811;DHT22;20119;48.334;16.206;2023-04-01T02:31:05;9.40;99.90
33811;DHT22;20119;48.334;16.206;2023-04-01T02:33:34;9.40;99.90
33811;DHT22;20119;48.334;16.206;2023-04-01T02:36:04;9.40;99.90
33811;DHT22;20119;48.334;16.206;2023-04-01T02:38:31;9.40;99.90
33811;DHT22;20119;48.334;16.206;2023-04-01T02:41:00;9.40;99.90
33811;DHT22;20119;48.334;16.206;2023-04-01T02:43:28;9.40;99.90
33811;DHT22;20119;48.334;16.206;2023-04-01T02:45:55;9.50;99.90
33811;DHT22;20119;48.334;16.206;2023-04-01T02:48:24;9.40;99.90
33811;DHT22;20119;48.334;16.206;2023-04-01T02:50:52;9.30;99.90
33811;DHT22;20119;48.334;16.206;2023-04-01T02:53:22;9.30;99.90
33811;DHT22;20119;48.334;16.206;2023-04-01T02:55:50;9.10;99.90
33811;DHT22;20119;48.334;16.206;2023-04-01T02:58:18;9.10;99.90
33811;DHT22;20119;48.334;16.206;2023-04-01T03:00:46;9.00;99.90
33811;DHT22;20119;48.334;16.206;2023-04-01T03:03:13;8.90;99.90
33811;DHT22;20119;48.334;16.206;2023-04-01T03:05:41;8.80;99.90
33811;DHT22;20119;48.334;16.206;2023-04-01T03:08:09;8.80;99.90
33811;DHT22;20119;48.334;16.206;2023-04-01T03:10:39;8.80;99.90
33811;DHT22;20119;48.334;16.206;2023-04-01T03:13:07;8.80;99.90
33811;DHT22;20119;48.334;16.206;2023-04-01T03:15:35;8.80;99.90
33811;DHT22;20119;48.334;16.206;2023-04-01T03:18:03;8.80;99.90
33811;DHT22;20119;48.334;16.206;2023-04-01T03:20:32;8.70;99.90
33811;DHT22;20119;48.334;16.206;2023-04-01T03:22:59;8.70;99.90
33811;DHT22;20119;48.334;16.206;2023-04-01T03:25:27;8.70;99.90
33811;DHT22;20119;48.334;16.206;2023-04-01T03:27:57;8.80;99.90
33811;DHT22;20119;48.334;16.206;2023-04-01T03:30:25;8.80;99.90
33811;DHT22;20119;48.334;16.206;2023-04-01T03:32:53;8.80;99.90
33811;DHT22;20119;48.334;16.206;2023-04-01T03:35:21;8.70;99.90
33811;DHT22;20119;48.334;16.206;2023-04-01T03:37:49;8.70;99.90
33811;DHT22;20119;48.334;16.206;2023-04-01T03:40:17;8.80;99.90
33811;DHT22;20119;48.334;16.206;2023-04-01T03:45:35;8.70;99.90
33811;DHT22;20119;48.334;16.206;2023-04-01T03:48:02;8.70;99.90
33811;DHT22;20119;48.334;16.206;2023-04-01T03:50:30;8.60;99.90
33811;DHT22;20119;48.334;16.206;2023-04-01T03:52:57;8.60;99.90
33811;DHT22;20119;48.334;16.206;2023-04-01T03:55:25;8.50;99.90
33811;DHT22;20119;48.334;16.206;2023-04-01T03:57:52;8.50;99.90
33811;DHT22;20119;48.334;16.206;2023-04-01T04:00:19;8.50;99.90
33811;DHT22;20119;48.334;16.206;2023-04-01T04:02:49;8.40;99.90
33811;DHT22;20119;48.334;16.206;2023-04-01T04:05:16;8.50;99.90
33811;DHT22;20119;48.334;16.206;2023-04-01T04:07:43;8.40;99.90
33811;DHT22;20119;48.334;16.206;2023-04-01T04:10:11;8.40;99.90
33811;DHT22;20119;48.334;16.206;2023-04-01T04:12:39;8.50;99.90
33811;DHT22;20119;48.334;16.206;2023-04-01T04:15:07;8.50;99.90
33811;DHT22;20119;48.334;16.206;2023-04-01T04:17:35;8.70;99.90
33811;DHT22;20119;48.334;16.206;2023-04-01T04:20:05;8.70;99.90
33811;DHT22;20119;48.334;16.206;2023-04-01T04:22:33;8.70;99.90
33811;DHT22;20119;48.334;16.206;2023-04-01T04:25:01;8.60;99.90
33811;DHT22;20119;48.334;16.206;2023-04-01T04:27:29;8.60;99.90
33811;DHT22;20119;48.334;16.206;2023-04-01T04:29:56;8.50;99.90
33811;DHT22;20119;48.334;16.206;2023-04-01T04:32:23;8.50;99.90
33811;DHT22;20119;48.334;16.206;2023-04-01T04:34:51;8.50;99.90
33811;DHT22;20119;48.334;16.206;2023-04-01T04:37:20;8.60;99.90
33811;DHT22;20119;48.334;16.206;2023-04-01T04:39:48;8.50;99.90
33811;DHT22;20119;48.334;16.206;2023-04-01T04:42:15;8.60;99.90
33811;DHT22;20119;48.334;16.206;2023-04-01T04:44:42;8.60;99.90
33811;DHT22;20119;48.334;16.206;2023-04-01T04:47:12;8.60;99.90
33811;DHT22;20119;48.334;16.206;2023-04-01T04:49:40;8.60;99.90
33811;DHT22;20119;48.334;16.206;2023-04-01T04:52:07;8.50;99.90
33811;DHT22;20119;48.334;16.206;2023-04-01T04:54:36;8.60;99.90
33811;DHT22;20119;48.334;16.206;2023-04-01T04:57:03;8.60;99.90
33811;DHT22;20119;48.334;16.206;2023-04-01T04:59:30;8.70;99.90
33811;DHT22;20119;48.334;16.206;2023-04-01T05:01:58;8.70;99.90
33811;DHT22;20119;48.334;16.206;2023-04-01T05:04:25;8.70;99.90
33811;DHT22;20119;48.334;16.206;2023-04-01T05:06:52;8.70;99.90
33811;DHT22;20119;48.334;16.206;2023-04-01T05:09:19;8.90;99.90
33811;DHT22;20119;48.334;16.206;2023-04-01T05:11:47;9.30;99.90
33811;DHT22;20119;48.334;16.206;2023-04-01T05:14:15;9.80;99.90
33811;DHT22;20119;48.334;16.206;2023-04-01T05:16:43;10.10;99.90
33811;DHT22;20119;48.334;16.206;2023-04-01T05:19:10;10.50;99.90
33811;DHT22;20119;48.334;16.206;2023-04-01T05:21:37;10.90;99.90
33811;DHT22;20119;48.334;16.206;2023-04-01T05:24:08;11.20;99.90
33811;DHT22;20119;48.334;16.206;2023-04-01T05:26:36;11.80;99.90
33811;DHT22;20119;48.334;16.206;2023-04-01T05:29:05;11.60;99.90
33811;DHT22;20119;48.334;16.206;2023-04-01T05:31:32;11.90;99.90
33811;DHT22;20119;48.334;16.206;2023-04-01T05:34:00;12.40;99.90
33811;DHT22;20119;48.334;16.206;2023-04-01T05:36:28;12.40;99.90
33811;DHT22;20119;48.334;16.206;2023-04-01T05:38:55;12.80;99.90
33811;DHT22;20119;48.334;16.206;2023-04-01T05:41:23;13.30;99.90
33811;DHT22;20119;48.334;16.206;2023-04-01T05:43:50;13.20;99.90
33811;DHT22;20119;48.334;16.206;2023-04-01T05:46:20;13.60;99.90
33811;DHT22;20119;48.334;16.206;2023-04-01T05:48:47;13.70;99.90
33811;DHT22;20119;48.334;16.206;2023-04-01T05:51:15;13.50;99.90
33811;DHT22;20119;48.334;16.206;2023-04-01T05:53:43;13.60;99.90
33811;DHT22;20119;48.334;16.206;2023-04-01T05:56:11;13.70;99.90
33811;DHT22;20119;48.334;16.206;2023-04-01T05:58:39;13.60;99.90
33811;DHT22;20119;48.334;16.206;2023-04-01T06:01:09;13.50;99.90
33811;DHT22;20119;48.334;16.206;2023-04-01T06:03:39;13.50;99.90
33811;DHT22;20119;48.334;16.206;2023-04-01T06:06:13;13.60;99.90
33811;DHT22;20119;48.334;16.206;2023-04-01T06:08:41;14.20;99.90
33811;DHT22;20119;48.334;16.206;2023-04-01T06:11:19;13.90;99.90
33811;DHT22;20119;48.334;16.206;2023-04-01T06:14:09;14.10;99.90
33811;DHT22;20119;48.334;16.206;2023-04-01T06:16:48;14.00;99.90
33811;DHT22;20119;48.334;16.206;2023-04-01T06:19:32;13.70;99.90
33811;DHT22;20119;48.334;16.206;2023-04-01T06:28:35;13.30;99.90
33811;DHT22;20119;48.334;16.206;2023-04-01T06:31:12;12.90;99.90
33811;DHT22;20119;48.334;16.206;2023-04-01T06:34:05;12.80;99.90
33811;DHT22;20119;48.334;16.206;2023-04-01T06:36:47;12.60;99.90
33811;DHT22;20119;48.334;16.206;2023-04-01T06:42:31;13.30;99.90
33811;DHT22;20119;48.334;16.206;2023-04-01T06:45:12;13.70;99.90
33811;DHT22;20119;48.334;16.206;2023-04-01T06:47:52;13.60;99.90
33811;DHT22;20119;48.334;16.206;2023-04-01T06:50:28;13.10;99.90
33811;DHT22;20119;48.334;16.206;2023-04-01T06:53:06;13.10;99.90
33811;DHT22;20119;48.334;16.206;2023-04-01T06:55:42;13.30;99.90
33811;DHT22;20119;48.334;16.206;2023-04-01T06:58:19;13.10;99.90
33811;DHT22;20119;48.334;16.206;2023-04-01T07:00:50;12.70;99.90
33811;DHT22;20119;48.334;16.206;2023-04-01T07:03:21;13.00;99.90
33811;DHT22;20119;48.334;16.206;2023-04-01T07:05:51;13.00;99.90
33811;DHT22;20119;48.334;16.206;2023-04-01T07:08:23;13.30;99.90
33811;DHT22;20119;48.334;16.206;2023-04-01T07:10:55;12.80;99.90
33811;DHT22;20119;48.334;16.206;2023-04-01T07:13:27;12.70;99.90
33811;DHT22;20119;48.334;16.206;2023-04-01T07:16:03;12.80;99.90
33811;DHT22;20119;48.334;16.206;2023-04-01T07:18:38;12.60;99.90
33811;DHT22;20119;48.334;16.206;2023-04-01T07:21:18;12.50;99.90
33811;DHT22;20119;48.334;16.206;2023-04-01T07:23:49;12.30;99.90
33811;DHT22;20119;48.334;16.206;2023-04-01T07:26:22;12.50;99.90
33811;DHT22;20119;48.334;16.206;2023-04-01T07:28:52;12.80;99.90
33811;DHT22;20119;48.334;16.206;2023-04-01T07:31:26;13.00;99.90
33811;DHT22;20119;48.334;16.206;2023-04-01T07:34:03;13.50;99.90
33811;DHT22;20119;48.334;16.206;2023-04-01T07:36:37;13.80;99.90
33811;DHT22;20119;48.334;16.206;2023-04-01T07:39:16;14.40;99.90
33811;DHT22;20119;48.334;16.206;2023-04-01T07:41:51;15.00;99.90
33811;DHT22;20119;48.334;16.206;2023-04-01T07:44:27;15.80;99.90
33811;DHT22;20119;48.334;16.206;2023-04-01T07:47:06;15.80;99.90
33811;DHT22;20119;48.334;16.206;2023-04-01T07:49:49;15.00;99.90
33811;DHT22;20119;48.334;16.206;2023-04-01T07:52:25;14.70;99.90
33811;DHT22;20119;48.334;16.206;2023-04-01T07:55:01;15.20;99.90
33811;DHT22;20119;48.334;16.206;2023-04-01T07:57:38;15.00;99.90
33811;DHT22;20119;48.334;16.206;2023-04-01T08:00:15;15.50;99.90
33811;DHT22;20119;48.334;16.206;2023-04-01T08:05:50;15.10;99.90
33811;DHT22;20119;48.334;16.206;2023-04-01T08:08:32;14.60;99.90
33811;DHT22;20119;48.334;16.206;2023-04-01T08:11:12;14.20;99.90
33811;DHT22;20119;48.334;16.206;2023-04-01T08:13:45;14.50;99.90
33811;DHT22;20119;48.334;16.206;2023-04-01T08:16:20;14.30;99.90
33811;DHT22;20119;48.334;16.206;2023-04-01T08:18:57;14.20;99.90
33811;DHT22;20119;48.334;16.206;2023-04-01T08:21:28;13.90;99.90
33811;DHT22;20119;48.334;16.206;2023-04-01T08:24:10;13.40;99.90
33811;DHT22;20119;48.334;16.206;2023-04-01T08:26:41;13.40;99.90
33811;DHT22;20119;48.334;16.206;2023-04-01T08:29:13;13.40;99.90
33811;DHT22;20119;48.334;16.206;2023-04-01T08:31:45;13.40;99.90
33811;DHT22;20119;48.334;16.206;2023-04-01T08:34:18;13.50;99.90
33811;DHT22;20119;48.334;16.206;2023-04-01T08:36:51;13.60;99.90
33811;DHT22;20119;48.334;16.206;2023-04-01T08:39:28;13.50;99.90
33811;DHT22;20119;48.334;16.206;2023-04-01T08:42:36;13.30;99.90
33811;DHT22;20119;48.334;16.206;2023-04-01T08:45:23;13.50;99.90
33811;DHT22;20119;48.334;16.206;2023-04-01T08:48:24;13.80;99.90
33811;DHT22;20119;48.334;16.206;2023-04-01T08:51:11;14.10;99.90
33811;DHT22;20119;48.334;16.206;2023-04-01T08:53:57;14.40;99.90
33811;DHT22;20119;48.334;16.206;2023-04-01T08:56:31;14.40;99.90
33811;DHT22;20119;48.334;16.206;2023-04-01T08:59:30;14.60;99.90
33811;DHT22;20119;48.334;16.206;2023-04-01T09:05:25;14.50;99.90
33811;DHT22;20119;48.334;16.206;2023-04-01T09:08:03;14.30;99.90
33811;DHT22;20119;48.334;16.206;2023-04-01T09:10:52;14.20;99.90
33811;DHT22;20119;48.334;16.206;2023-04-01T09:13:31;14.10;99.90
33811;DHT22;20119;48.334;16.206;2023-04-01T09:16:17;14.40;99.90
33811;DHT22;20119;48.334;16.206;2023-04-01T09:25:06;14.60;99.90
33811;DHT22;20119;48.334;16.206;2023-04-01T09:27:45;14.30;99.90
33811;DHT22;20119;48.334;16.206;2023-04-01T09:30:33;14.50;99.90
33811;DHT22;20119;48.334;16.206;2023-04-01T09:36:10;14.40;99.90
33811;DHT22;20119;48.334;16.206;2023-04-01T09:38:48;14.30;99.90
33811;DHT22;20119;48.334;16.206;2023-04-01T09:41:29;14.30;99.90
33811;DHT22;20119;48.334;16.206;2023-04-01T09:44:04;14.30;99.90
33811;DHT22;20119;48.334;16.206;2023-04-01T09:46:52;14.30;99.90
33811;DHT22;20119;48.334;16.206;2023-04-01T09:49:50;14.70;99.90
33811;DHT22;20119;48.334;16.206;2023-04-01T09:52:34;14.80;99.90
33811;DHT22;20119;48.334;16.206;2023-04-01T09:55:24;14.60;99.90
33811;DHT22;20119;48.334;16.206;2023-04-01T09:58:14;14.90;99.90
33811;DHT22;20119;48.334;16.206;2023-04-01T10:01:20;15.20;99.90
33811;DHT22;20119;48.334;16.206;2023-04-01T10:10:23;15.40;99.90
33811;DHT22;20119;48.334;16.206;2023-04-01T10:13:14;15.40;99.90
33811;DHT22;20119;48.334;16.206;2023-04-01T10:19:39;14.90;99.90
33811;DHT22;20119;48.334;16.206;2023-04-01T10:22:22;15.10;99.90
33811;DHT22;20119;48.334;16.206;2023-04-01T10:25:16;15.10;99.90
33811;DHT22;20119;48.334;16.206;2023-04-01T10:28:13;14.90;99.90
33811;DHT22;20119;48.334;16.206;2023-04-01T10:36:54;14.70;99.90
33811;DHT22;20119;48.334;16.206;2023-04-01T10:42:52;14.80;99.90
33811;DHT22;20119;48.334;16.206;2023-04-01T10:49:04;15.20;99.90
33811;DHT22;20119;48.334;16.206;2023-04-01T10:52:03;15.30;99.90
33811;DHT22;20119;48.334;16.206;2023-04-01T10:54:45;15.20;99.90
33811;DHT22;20119;48.334;16.206;2023-04-01T10:57:26;15.20;99.90
33811;DHT22;20119;48.334;16.206;2023-04-01T11:00:31;15.50;99.90
33811;DHT22;20119;48.334;16.206;2023-04-01T11:03:30;15.70;99.90
33811;DHT22;20119;48.334;16.206;2023-04-01T11:06:30;15.80;99.90
33811;DHT22;20119;48.334;16.206;2023-04-01T11:15:39;15.40;99.90
33811;DHT22;20119;48.334;16.206;2023-04-01T11:21:46;15.40;99.90
33811;DHT22;20119;48.334;16.206;2023-04-01T11:24:42;15.30;99.90
33811;DHT22;20119;48.334;16.206;2023-04-01T11:27:30;15.20;99.90
33811;DHT22;20119;48.334;16.206;2023-04-01T11:30:16;15.20;99.90
33811;DHT22;20119;48.334;16.206;2023-04-01T11:32:53;15.20;99.90
33811;DHT22;20119;48.334;16.206;2023-04-01T11:35:52;15.40;99.90
33811;DHT22;20119;48.334;16.206;2023-04-01T11:38:40;15.50;99.90
33811;DHT22;20119;48.334;16.206;2023-04-01T11:41:22;15.70;99.90
33811;DHT22;20119;48.334;16.206;2023-04-01T11:44:04;15.70;99.90
33811;DHT22;20119;48.334;16.206;2023-04-01T11:46:43;15.90;99.90
33811;DHT22;20119;48.334;16.206;2023-04-01T11:52:21;15.70;99.90
33811;DHT22;20119;48.334;16.206;2023-04-01T11:55:11;15.60;99.90
33811;DHT22;20119;48.334;16.206;2023-04-01T12:00:53;16.00;99.90
33811;DHT22;20119;48.334;16.206;2023-04-01T12:03:43;16.30;99.90
33811;DHT22;20119;48.334;16.206;2023-04-01T12:06:18;16.10;99.90
33811;DHT22;20119;48.334;16.206;2023-04-01T12:08:54;16.10;99.90
33811;DHT22;20119;48.334;16.206;2023-04-01T12:11:34;16.10;99.90
33811;DHT22;20119;48.334;16.206;2023-04-01T12:14:13;16.30;99.90
33811;DHT22;20119;48.334;16.206;2023-04-01T12:16:50;16.40;99.90
33811;DHT22;20119;48.334;16.206;2023-04-01T12:19:26;16.50;99.90
33811;DHT22;20119;48.334;16.206;2023-04-01T12:22:21;16.30;99.90
33811;DHT22;20119;48.334;16.206;2023-04-01T12:24:58;16.10;99.90
33811;DHT22;20119;48.334;16.206;2023-04-01T12:27:38;16.30;99.90
33811;DHT22;20119;48.334;16.206;2023-04-01T12:33:01;16.10;99.90
33811;DHT22;20119;48.334;16.206;2023-04-01T12:35:41;15.90;99.90
33811;DHT22;20119;48.334;16.206;2023-04-01T12:38:21;15.80;99.90
33811;DHT22;20119;48.334;16.206;2023-04-01T12:47:24;15.30;99.90
33811;DHT22;20119;48.334;16.206;2023-04-01T12:50:05;15.60;99.90
33811;DHT22;20119;48.334;16.206;2023-04-01T12:52:45;16.30;99.90
33811;DHT22;20119;48.334;16.206;2023-04-01T12:55:36;16.60;99.90
33811;DHT22;20119;48.334;16.206;2023-04-01T12:58:36;16.60;99.90
33811;DHT22;20119;48.334;16.206;2023-04-01T13:01:30;16.60;99.90
33811;DHT22;20119;48.334;16.206;2023-04-01T13:10:12;15.80;99.90
33811;DHT22;20119;48.334;16.206;2023-04-01T13:13:00;16.00;99.90
33811;DHT22;20119;48.334;16.206;2023-04-01T13:15:40;15.90;99.90
33811;DHT22;20119;48.334;16.206;2023-04-01T13:18:19;15.90;99.90
33811;DHT22;20119;48.334;16.206;2023-04-01T13:20:54;15.70;99.90
33811;DHT22;20119;48.334;16.206;2023-04-01T13:23:48;15.60;99.90
33811;DHT22;20119;48.334;16.206;2023-04-01T13:26:27;15.60;99.90
33811;DHT22;20119;48.334;16.206;2023-04-01T13:29:00;15.60;99.90
33811;DHT22;20119;48.334;16.206;2023-04-01T13:31:47;15.40;99.90
33811;DHT22;20119;48.334;16.206;2023-04-01T13:34:27;15.50;99.90
33811;DHT22;20119;48.334;16.206;2023-04-01T13:37:10;15.60;99.90
33811;DHT22;20119;48.334;16.206;2023-04-01T13:39:51;15.80;99.90
33811;DHT22;20119;48.334;16.206;2023-04-01T13:42:27;15.90;99.90
33811;DHT22;20119;48.334;16.206;2023-04-01T13:45:00;16.20;99.90
33811;DHT22;20119;48.334;16.206;2023-04-01T13:51:12;16.60;99.90
33811;DHT22;20119;48.334;16.206;2023-04-01T13:56:48;17.10;99.90
33811;DHT22;20119;48.334;16.206;2023-04-01T13:59:37;17.10;99.90
33811;DHT22;20119;48.334;16.206;2023-04-01T14:02:29;16.90;99.90
33811;DHT22;20119;48.334;16.206;2023-04-01T14:05:15;16.80;99.90
33811;DHT22;20119;48.334;16.206;2023-04-01T14:07:58;17.00;99.90
33811;DHT22;20119;48.334;16.206;2023-04-01T14:10:34;16.90;99.90
33811;DHT22;20119;48.334;16.206;2023-04-01T14:13:09;16.60;99.90
33811;DHT22;20119;48.334;16.206;2023-04-01T14:16:00;16.60;99.90
33811;DHT22;20119;48.334;16.206;2023-04-01T14:18:57;16.40;99.90
33811;DHT22;20119;48.334;16.206;2023-04-01T14:21:35;16.30;99.90
33811;DHT22;20119;48.334;16.206;2023-04-01T14:24:21;16.20;99.90
33811;DHT22;20119;48.334;16.206;2023-04-01T14:27:17;16.20;99.90
33811;DHT22;20119;48.334;16.206;2023-04-01T14:30:02;16.00;99.90
33811;DHT22;20119;48.334;16.206;2023-04-01T14:32:42;15.90;99.90
33811;DHT22;20119;48.334;16.206;2023-04-01T14:35:29;15.80;99.90
33811;DHT22;20119;48.334;16.206;2023-04-01T14:38:19;15.90;99.90
33811;DHT22;20119;48.334;16.206;2023-04-01T14:43:48;16.30;99.90
33811;DHT22;20119;48.334;16.206;2023-04-01T14:46:52;16.10;99.90
33811;DHT22;20119;48.334;16.206;2023-04-01T14:49:30;16.20;99.90
33811;DHT22;20119;48.334;16.206;2023-04-01T14:52:05;16.20;99.90
33811;DHT22;20119;48.334;16.206;2023-04-01T14:54:39;16.20;99.90
33811;DHT22;20119;48.334;16.206;2023-04-01T14:57:11;16.20;99.90
33811;DHT22;20119;48.334;16.206;2023-04-01T14:59:47;16.10;99.90
33811;DHT22;20119;48.334;16.206;2023-04-01T15:02:34;16.10;99.90
33811;DHT22;20119;48.334;16.206;2023-04-01T15:05:10;16.10;99.90
33811;DHT22;20119;48.334;16.206;2023-04-01T15:11:02;16.00;99.90
33811;DHT22;20119;48.334;16.206;2023-04-01T15:13:53;16.10;99.90
33811;DHT22;20119;48.334;16.206;2023-04-01T15:16:26;16.20;99.90
33811;DHT22;20119;48.334;16.206;2023-04-01T15:19:01;16.40;99.90
33811;DHT22;20119;48.334;16.206;2023-04-01T15:21:48;16.50;99.90
33811;DHT22;20119;48.334;16.206;2023-04-01T15:24:22;16.40;99.90
33811;DHT22;20119;48.334;16.206;2023-04-01T15:27:07;16.40;99.90
33811;DHT22;20119;48.334;16.206;2023-04-01T15:29:47;16.50;99.90
33811;DHT22;20119;48.334;16.206;2023-04-01T15:32:21;16.60;99.90
33811;DHT22;20119;48.334;16.206;2023-04-01T15:34:56;16.50;99.90
33811;DHT22;20119;48.334;16.206;2023-04-01T15:37:36;16.40;99.90
33811;DHT22;20119;48.334;16.206;2023-04-01T15:40:17;16.40;99.90
33811;DHT22;20119;48.334;16.206;2023-04-01T15:42:57;16.40;99.90
33811;DHT22;20119;48.334;16.206;2023-04-01T15:45:37;16.30;99.90
33811;DHT22;20119;48.334;16.206;2023-04-01T15:48:18;16.00;99.90
33811;DHT22;20119;48.334;16.206;2023-04-01T15:51:01;15.80;99.90
33811;DHT22;20119;48.334;16.206;2023-04-01T15:53:59;15.50;99.90
33811;DHT22;20119;48.334;16.206;2023-04-01T15:56:48;15.00;99.90
33811;DHT22;20119;48.334;16.206;2023-04-01T15:59:33;14.70;99.90
33811;DHT22;20119;48.334;16.206;2023-04-01T16:02:12;14.50;99.90
33811;DHT22;20119;48.334;16.206;2023-04-01T16:04:57;14.40;99.90
33811;DHT22;20119;48.334;16.206;2023-04-01T16:07:42;14.30;99.90
33811;DHT22;20119;48.334;16.206;2023-04-01T16:10:24;14.30;99.90
33811;DHT22;20119;48.334;16.206;2023-04-01T16:13:03;14.30;99.90
33811;DHT22;20119;48.334;16.206;2023-04-01T16:15:41;14.20;99.90
33811;DHT22;20119;48.334;16.206;2023-04-01T16:18:20;14.20;99.90
33811;DHT22;20119;48.334;16.206;2023-04-01T16:20:53;14.10;99.90
33811;DHT22;20119;48.334;16.206;2023-04-01T16:23:26;14.10;99.90
33811;DHT22;20119;48.334;16.206;2023-04-01T16:26:05;14.00;99.90
33811;DHT22;20119;48.334;16.206;2023-04-01T16:28:38;14.00;99.90
33811;DHT22;20119;48.334;16.206;2023-04-01T16:31:12;13.90;99.90
33811;DHT22;20119;48.334;16.206;2023-04-01T16:33:46;13.90;99.90
33811;DHT22;20119;48.334;16.206;2023-04-01T16:36:25;13.80;99.90
33811;DHT22;20119;48.334;16.206;2023-04-01T16:42:11;13.90;99.90
33811;DHT22;20119;48.334;16.206;2023-04-01T16:44:50;13.80;99.90
33811;DHT22;20119;48.334;16.206;2023-04-01T16:47:21;13.80;99.90
33811;DHT22;20119;48.334;16.206;2023-04-01T16:49:59;13.80;99.90
33811;DHT22;20119;48.334;16.206;2023-04-01T16:52:44;13.70;99.90
33811;DHT22;20119;48.334;16.206;2023-04-01T16:55:20;13.60;99.90
33811;DHT22;20119;48.334;16.206;2023-04-01T16:57:52;13.50;99.90
33811;DHT22;20119;48.334;16.206;2023-04-01T17:00:26;13.30;99.90
33811;DHT22;20119;48.334;16.206;2023-04-01T17:03:03;13.20;99.90
33811;DHT22;20119;48.334;16.206;2023-04-01T17:05:49;13.10;99.90
33811;DHT22;20119;48.334;16.206;2023-04-01T17:08:31;13.00;99.90
33811;DHT22;20119;48.334;16.206;2023-04-01T17:11:10;12.90;99.90
33811;DHT22;20119;48.334;16.206;2023-04-01T17:13:48;12.90;99.90
33811;DHT22;20119;48.334;16.206;2023-04-01T17:16:42;12.80;99.90
33811;DHT22;20119;48.334;16.206;2023-04-01T17:19:27;12.70;99.90
33811;DHT22;20119;48.334;16.206;2023-04-01T17:22:05;12.50;99.90
33811;DHT22;20119;48.334;16.206;2023-04-01T17:24:46;12.40;99.90
33811;DHT22;20119;48.334;16.206;2023-04-01T17:27:26;12.20;99.90
33811;DHT22;20119;48.334;16.206;2023-04-01T17:30:06;12.10;99.90
33811;DHT22;20119;48.334;16.206;2023-04-01T17:32:45;12.00;99.90
33811;DHT22;20119;48.334;16.206;2023-04-01T17:35:18;11.90;99.90
33811;DHT22;20119;48.334;16.206;2023-04-01T17:37:55;11.90;99.90
33811;DHT22;20119;48.334;16.206;2023-04-01T17:40:35;11.80;99.90
33811;DHT22;20119;48.334;16.206;2023-04-01T17:43:10;11.70;99.90
33811;DHT22;20119;48.334;16.206;2023-04-01T17:45:49;11.70;99.90
33811;DHT22;20119;48.334;16.206;2023-04-01T17:48:24;11.70;99.90
33811;DHT22;20119;48.334;16.206;2023-04-01T17:51:06;11.60;99.90
33811;DHT22;20119;48.334;16.206;2023-04-01T17:53:44;11.60;99.90
33811;DHT22;20119;48.334;16.206;2023-04-01T17:56:24;11.60;99.90
33811;DHT22;20119;48.334;16.206;2023-04-01T17:59:01;11.50;99.90
33811;DHT22;20119;48.334;16.206;2023-04-01T18:01:47;11.50;99.90
33811;DHT22;20119;48.334;16.206;2023-04-01T18:04:37;11.40;99.90